sensor_id;sensor_type;location;lat;lon;timestamp;P1;durP1;ratioP1;P2;durP2;ratioP2
75535;SDS011;64119;52.070;20.804;2023-02-01T00:01:12;4.30;;;2.70;;
75535;SDS011;64119;52.070;20.804;2023-02-01T00:03:39;3.40;;;2.20;;
75535;SDS011;64119;52.070;20.804;2023-02-01T00:06:07;3.60;;;2.30;;
75535;SDS011;64119;52.070;20.804;2023-02-01T00:08:35;2.80;;;1.90;;
75535;SDS011;64119;52.070;20.804;2023-02-01T00:11:04;4.60;;;2.40;;
75535;SDS011;64119;52.070;20.804;2023-02-01T00:13:35;4.70;;;2.50;;
75535;SDS011;64119;52.070;20.804;2023-02-01T00:18:46;3.20;;;1.60;;
75535;SDS011;64119;52.070;20.804;2023-02-01T00:21:16;3.70;;;2.00;;
75535;SDS011;64119;52.070;20.804;2023-02-01T00:23:45;4.40;;;2.10;;
75535;SDS011;64119;52.070;20.804;2023-02-01T00:26:17;3.70;;;2.60;;
75535;SDS011;64119;52.070;20.804;2023-02-01T00:29:07;4.30;;;2.40;;
75535;SDS011;64119;52.070;20.804;2023-02-01T00:31:38;4.00;;;2.50;;
75535;SDS011;64119;52.070;20.804;2023-02-01T00:34:07;4.70;;;2.00;;
75535;SDS011;64119;52.070;20.804;2023-02-01T00:36:40;5.30;;;2.10;;
75535;SDS011;64119;52.070;20.804;2023-02-01T00:39:08;3.80;;;1.80;;
75535;SDS011;64119;52.070;20.804;2023-02-01T00:41:37;3.30;;;2.00;;
75535;SDS011;64119;52.070;20.804;2023-02-01T00:44:04;4.40;;;2.30;;
75535;SDS011;64119;52.070;20.804;2023-02-01T00:46:32;2.90;;;2.10;;
75535;SDS011;64119;52.070;20.804;2023-02-01T00:49:01;2.40;;;1.40;;
75535;SDS011;64119;52.070;20.804;2023-02-01T00:51:29;3.40;;;1.80;;
75535;SDS011;64119;52.070;20.804;2023-02-01T00:53:57;2.70;;;1.30;;
75535;SDS011;64119;52.070;20.804;2023-02-01T00:56:26;2.80;;;1.50;;
75535;SDS011;64119;52.070;20.804;2023-02-01T00:58:57;3.30;;;1.40;;
75535;SDS011;64119;52.070;20.804;2023-02-01T01:01:25;2.50;;;0.90;;
75535;SDS011;64119;52.070;20.804;2023-02-01T01:03:56;3.90;;;2.30;;
75535;SDS011;64119;52.070;20.804;2023-02-01T01:06:26;3.80;;;1.60;;
75535;SDS011;64119;52.070;20.804;2023-02-01T01:08:56;3.10;;;1.50;;
75535;SDS011;64119;52.070;20.804;2023-02-01T01:11:26;2.60;;;1.60;;
75535;SDS011;64119;52.070;20.804;2023-02-01T01:13:56;3.10;;;1.40;;
75535;SDS011;64119;52.070;20.804;2023-02-01T01:16:26;2.60;;;1.30;;
75535;SDS011;64119;52.070;20.804;2023-02-01T01:18:55;3.70;;;2.10;;
75535;SDS011;64119;52.070;20.804;2023-02-01T01:21:23;3.10;;;1.10;;
75535;SDS011;64119;52.070;20.804;2023-02-01T01:23:51;2.90;;;1.20;;
75535;SDS011;64119;52.070;20.804;2023-02-01T01:26:24;2.70;;;1.20;;
75535;SDS011;64119;52.070;20.804;2023-02-01T01:28:54;6.10;;;1.30;;
75535;SDS011;64119;52.070;20.804;2023-02-01T01:31:23;2.70;;;1.00;;
75535;SDS011;64119;52.070;20.804;2023-02-01T01:33:53;4.90;;;1.10;;
75535;SDS011;64119;52.070;20.804;2023-02-01T01:36:23;2.10;;;0.80;;
75535;SDS011;64119;52.070;20.804;2023-02-01T01:38:52;2.90;;;1.00;;
75535;SDS011;64119;52.070;20.804;2023-02-01T01:41:21;1.90;;;0.70;;
75535;SDS011;64119;52.070;20.804;2023-02-01T01:43:55;1.70;;;1.00;;
75535;SDS011;64119;52.070;20.804;2023-02-01T01:46:33;2.50;;;1.10;;
75535;SDS011;64119;52.070;20.804;2023-02-01T01:49:08;3.10;;;1.20;;
75535;SDS011;64119;52.070;20.804;2023-02-01T01:51:41;3.90;;;1.30;;
75535;SDS011;64119;52.070;20.804;2023-02-01T01:54:33;3.00;;;1.00;;
75535;SDS011;64119;52.070;20.804;2023-02-01T01:57:06;3.20;;;1.60;;
75535;SDS011;64119;52.070;20.804;2023-02-01T01:59:38;3.70;;;1.10;;
75535;SDS011;64119;52.070;20.804;2023-02-01T02:02:10;5.90;;;1.30;;
75535;SDS011;64119;52.070;20.804;2023-02-01T02:04:38;4.00;;;1.30;;
75535;SDS011;64119;52.070;20.804;2023-02-01T02:07:08;4.10;;;1.40;;
75535;SDS011;64119;52.070;20.804;2023-02-01T02:09:40;1.80;;;0.90;;
75535;SDS011;64119;52.070;20.804;2023-02-01T02:12:26;3.00;;;1.00;;
75535;SDS011;64119;52.070;20.804;2023-02-01T02:14:53;4.90;;;0.80;;
75535;SDS011;64119;52.070;20.804;2023-02-01T02:28:50;2.60;;;0.70;;
75535;SDS011;64119;52.070;20.804;2023-02-01T02:31:28;4.20;;;1.30;;
75535;SDS011;64119;52.070;20.804;2023-02-01T02:45:08;3.30;;;0.80;;
75535;SDS011;64119;52.070;20.804;2023-02-01T02:50:40;2.50;;;1.20;;
75535;SDS011;64119;52.070;20.804;2023-02-01T02:53:38;4.00;;;1.00;;
75535;SDS011;64119;52.070;20.804;2023-02-01T02:56:32;3.90;;;1.10;;
75535;SDS011;64119;52.070;20.804;2023-02-01T02:59:20;4.00;;;1.10;;
75535;SDS011;64119;52.070;20.804;2023-02-01T03:02:10;5.70;;;1.30;;
75535;SDS011;64119;52.070;20.804;2023-02-01T03:04:58;2.30;;;0.80;;
75535;SDS011;64119;52.070;20.804;2023-02-01T03:07:46;5.30;;;1.30;;
75535;SDS011;64119;52.070;20.804;2023-02-01T03:18:58;3.80;;;0.90;;
75535;SDS011;64119;52.070;20.804;2023-02-01T03:24:11;5.30;;;1.40;;
75535;SDS011;64119;52.070;20.804;2023-02-01T03:26:48;6.20;;;1.40;;
75535;SDS011;64119;52.070;20.804;2023-02-01T03:31:57;3.40;;;1.00;;
75535;SDS011;64119;52.070;20.804;2023-02-01T03:34:26;3.20;;;1.40;;
75535;SDS011;64119;52.070;20.804;2023-02-01T03:37:04;3.40;;;1.30;;
75535;SDS011;64119;52.070;20.804;2023-02-01T03:39:41;5.90;;;1.80;;
75535;SDS011;64119;52.070;20.804;2023-02-01T03:44:47;3.60;;;1.50;;
75535;SDS011;64119;52.070;20.804;2023-02-01T03:47:21;3.80;;;1.10;;
75535;SDS011;64119;52.070;20.804;2023-02-01T03:50:00;3.20;;;1.30;;
75535;SDS011;64119;52.070;20.804;2023-02-01T03:52:33;4.60;;;1.20;;
75535;SDS011;64119;52.070;20.804;2023-02-01T03:55:08;7.10;;;1.40;;
75535;SDS011;64119;52.070;20.804;2023-02-01T03:57:44;5.80;;;1.70;;
75535;SDS011;64119;52.070;20.804;2023-02-01T04:00:20;6.30;;;1.30;;
75535;SDS011;64119;52.070;20.804;2023-02-01T04:02:50;2.70;;;1.30;;
75535;SDS011;64119;52.070;20.804;2023-02-01T04:05:20;3.60;;;1.40;;
75535;SDS011;64119;52.070;20.804;2023-02-01T04:08:07;3.60;;;1.50;;
75535;SDS011;64119;52.070;20.804;2023-02-01T04:10:35;4.30;;;1.20;;
75535;SDS011;64119;52.070;20.804;2023-02-01T04:13:02;2.90;;;1.20;;
75535;SDS011;64119;52.070;20.804;2023-02-01T04:15:30;2.80;;;1.20;;
75535;SDS011;64119;52.070;20.804;2023-02-01T04:17:58;4.90;;;1.60;;
75535;SDS011;64119;52.070;20.804;2023-02-01T04:20:25;3.90;;;1.40;;
75535;SDS011;64119;52.070;20.804;2023-02-01T04:39:00;2.50;;;0.90;;
75535;SDS011;64119;52.070;20.804;2023-02-01T04:41:26;3.20;;;1.00;;
75535;SDS011;64119;52.070;20.804;2023-02-01T04:43:53;2.40;;;0.80;;
75535;SDS011;64119;52.070;20.804;2023-02-01T04:46:19;3.60;;;1.10;;
75535;SDS011;64119;52.070;20.804;2023-02-01T04:48:45;4.50;;;1.40;;
75535;SDS011;64119;52.070;20.804;2023-02-01T04:51:12;4.60;;;1.10;;
75535;SDS011;64119;52.070;20.804;2023-02-01T04:53:38;11.70;;;2.10;;
75535;SDS011;64119;52.070;20.804;2023-02-01T04:56:05;6.40;;;1.20;;
75535;SDS011;64119;52.070;20.804;2023-02-01T04:58:32;5.00;;;1.40;;
75535;SDS011;64119;52.070;20.804;2023-02-01T05:00:58;4.20;;;1.20;;
75535;SDS011;64119;52.070;20.804;2023-02-01T05:03:24;4.50;;;1.30;;
75535;SDS011;64119;52.070;20.804;2023-02-01T05:05:51;2.20;;;0.70;;
75535;SDS011;64119;52.070;20.804;2023-02-01T05:08:19;6.50;;;1.30;;
75535;SDS011;64119;52.070;20.804;2023-02-01T05:10:48;4.30;;;1.00;;
75535;SDS011;64119;52.070;20.804;2023-02-01T05:13:14;6.50;;;0.90;;
75535;SDS011;64119;52.070;20.804;2023-02-01T05:15:59;4.70;;;1.00;;
75535;SDS011;64119;52.070;20.804;2023-02-01T05:18:25;4.70;;;1.00;;
75535;SDS011;64119;52.070;20.804;2023-02-01T05:20:52;5.90;;;1.30;;
75535;SDS011;64119;52.070;20.804;2023-02-01T05:23:18;3.60;;;1.20;;
75535;SDS011;64119;52.070;20.804;2023-02-01T05:25:44;4.50;;;1.30;;
75535;SDS011;64119;52.070;20.804;2023-02-01T05:28:10;4.80;;;1.10;;
75535;SDS011;64119;52.070;20.804;2023-02-01T05:30:37;4.50;;;1.10;;
75535;SDS011;64119;52.070;20.804;2023-02-01T05:33:06;3.30;;;1.40;;
75535;SDS011;64119;52.070;20.804;2023-02-01T05:35:33;4.00;;;1.00;;
75535;SDS011;64119;52.070;20.804;2023-02-01T05:37:59;3.50;;;0.90;;
75535;SDS011;64119;52.070;20.804;2023-02-01T05:40:25;2.60;;;1.20;;
75535;SDS011;64119;52.070;20.804;2023-02-01T05:42:52;3.50;;;1.10;;
75535;SDS011;64119;52.070;20.804;2023-02-01T05:45:18;3.00;;;0.90;;
75535;SDS011;64119;52.070;20.804;2023-02-01T05:47:44;4.80;;;1.10;;
75535;SDS011;64119;52.070;20.804;2023-02-01T05:50:10;4.00;;;0.60;;
75535;SDS011;64119;52.070;20.804;2023-02-01T05:52:37;3.30;;;1.30;;
75535;SDS011;64119;52.070;20.804;2023-02-01T05:55:03;4.10;;;1.10;;
75535;SDS011;64119;52.070;20.804;2023-02-01T05:57:30;2.80;;;0.90;;
75535;SDS011;64119;52.070;20.804;2023-02-01T05:59:56;4.40;;;1.50;;
75535;SDS011;64119;52.070;20.804;2023-02-01T06:02:24;4.40;;;1.60;;
75535;SDS011;64119;52.070;20.804;2023-02-01T06:04:50;4.20;;;1.10;;
75535;SDS011;64119;52.070;20.804;2023-02-01T06:07:17;4.70;;;1.50;;
75535;SDS011;64119;52.070;20.804;2023-02-01T06:09:43;3.20;;;1.00;;
75535;SDS011;64119;52.070;20.804;2023-02-01T06:12:09;3.90;;;1.00;;
75535;SDS011;64119;52.070;20.804;2023-02-01T06:14:36;3.70;;;1.00;;
75535;SDS011;64119;52.070;20.804;2023-02-01T06:17:03;5.70;;;1.60;;
75535;SDS011;64119;52.070;20.804;2023-02-01T06:19:29;1.80;;;0.80;;
75535;SDS011;64119;52.070;20.804;2023-02-01T06:21:56;3.40;;;1.00;;
75535;SDS011;64119;52.070;20.804;2023-02-01T06:24:22;6.00;;;1.40;;
75535;SDS011;64119;52.070;20.804;2023-02-01T06:26:48;4.40;;;0.80;;
75535;SDS011;64119;52.070;20.804;2023-02-01T06:29:15;3.00;;;1.20;;
75535;SDS011;64119;52.070;20.804;2023-02-01T06:31:41;3.90;;;0.80;;
75535;SDS011;64119;52.070;20.804;2023-02-01T06:34:08;3.80;;;1.20;;
75535;SDS011;64119;52.070;20.804;2023-02-01T06:36:35;4.60;;;1.10;;
75535;SDS011;64119;52.070;20.804;2023-02-01T06:39:01;3.40;;;1.20;;
75535;SDS011;64119;52.070;20.804;2023-02-01T06:41:28;2.60;;;0.90;;
75535;SDS011;64119;52.070;20.804;2023-02-01T06:43:55;9.10;;;1.50;;
75535;SDS011;64119;52.070;20.804;2023-02-01T06:46:21;4.00;;;1.00;;
75535;SDS011;64119;52.070;20.804;2023-02-01T06:48:48;1.90;;;0.90;;
75535;SDS011;64119;52.070;20.804;2023-02-01T06:51:18;3.20;;;0.80;;
75535;SDS011;64119;52.070;20.804;2023-02-01T06:53:50;8.90;;;1.50;;
75535;SDS011;64119;52.070;20.804;2023-02-01T06:56:17;4.20;;;1.20;;
75535;SDS011;64119;52.070;20.804;2023-02-01T06:58:44;3.90;;;1.10;;
75535;SDS011;64119;52.070;20.804;2023-02-01T07:01:10;6.40;;;1.00;;
75535;SDS011;64119;52.070;20.804;2023-02-01T07:03:38;6.10;;;1.30;;
75535;SDS011;64119;52.070;20.804;2023-02-01T07:06:04;4.90;;;1.50;;
75535;SDS011;64119;52.070;20.804;2023-02-01T07:08:32;5.90;;;1.50;;
75535;SDS011;64119;52.070;20.804;2023-02-01T07:14:04;8.00;;;1.50;;
75535;SDS011;64119;52.070;20.804;2023-02-01T07:16:32;2.10;;;1.20;;
75535;SDS011;64119;52.070;20.804;2023-02-01T07:19:00;5.00;;;1.20;;
75535;SDS011;64119;52.070;20.804;2023-02-01T07:21:28;4.60;;;1.40;;
75535;SDS011;64119;52.070;20.804;2023-02-01T07:23:57;4.10;;;1.10;;
75535;SDS011;64119;52.070;20.804;2023-02-01T07:26:25;4.40;;;1.50;;
75535;SDS011;64119;52.070;20.804;2023-02-01T07:28:53;3.20;;;0.90;;
75535;SDS011;64119;52.070;20.804;2023-02-01T07:31:20;7.40;;;1.50;;
75535;SDS011;64119;52.070;20.804;2023-02-01T07:33:49;4.30;;;1.40;;
75535;SDS011;64119;52.070;20.804;2023-02-01T07:36:20;5.20;;;1.40;;
75535;SDS011;64119;52.070;20.804;2023-02-01T07:38:48;4.80;;;1.20;;
75535;SDS011;64119;52.070;20.804;2023-02-01T07:41:15;3.80;;;1.20;;
75535;SDS011;64119;52.070;20.804;2023-02-01T07:43:43;8.30;;;1.30;;
75535;SDS011;64119;52.070;20.804;2023-02-01T07:46:11;6.20;;;1.40;;
75535;SDS011;64119;52.070;20.804;2023-02-01T07:48:40;4.60;;;1.30;;
75535;SDS011;64119;52.070;20.804;2023-02-01T07:51:09;7.40;;;1.30;;
75535;SDS011;64119;52.070;20.804;2023-02-01T07:53:39;2.30;;;1.10;;
75535;SDS011;64119;52.070;20.804;2023-02-01T07:56:10;1.60;;;1.00;;
75535;SDS011;64119;52.070;20.804;2023-02-01T07:58:42;4.50;;;1.00;;
75535;SDS011;64119;52.070;20.804;2023-02-01T08:01:17;3.50;;;0.80;;
75535;SDS011;64119;52.070;20.804;2023-02-01T08:03:48;6.10;;;1.10;;
75535;SDS011;64119;52.070;20.804;2023-02-01T08:06:17;9.20;;;1.60;;
75535;SDS011;64119;52.070;20.804;2023-02-01T08:08:47;7.30;;;1.30;;
75535;SDS011;64119;52.070;20.804;2023-02-01T08:11:16;4.30;;;1.30;;
75535;SDS011;64119;52.070;20.804;2023-02-01T08:13:45;6.60;;;1.50;;
75535;SDS011;64119;52.070;20.804;2023-02-01T08:16:13;5.10;;;1.50;;
75535;SDS011;64119;52.070;20.804;2023-02-01T08:18:42;4.60;;;1.40;;
75535;SDS011;64119;52.070;20.804;2023-02-01T08:21:14;5.00;;;1.20;;
75535;SDS011;64119;52.070;20.804;2023-02-01T08:23:44;3.50;;;1.10;;
75535;SDS011;64119;52.070;20.804;2023-02-01T08:31:11;3.90;;;1.30;;
75535;SDS011;64119;52.070;20.804;2023-02-01T08:33:42;3.00;;;1.10;;
75535;SDS011;64119;52.070;20.804;2023-02-01T08:36:11;6.00;;;1.80;;
75535;SDS011;64119;52.070;20.804;2023-02-01T08:38:39;5.50;;;1.20;;
75535;SDS011;64119;52.070;20.804;2023-02-01T08:41:08;2.70;;;1.10;;
75535;SDS011;64119;52.070;20.804;2023-02-01T08:43:39;7.00;;;2.10;;
75535;SDS011;64119;52.070;20.804;2023-02-01T08:46:07;5.40;;;1.10;;
75535;SDS011;64119;52.070;20.804;2023-02-01T08:48:36;8.30;;;1.90;;
75535;SDS011;64119;52.070;20.804;2023-02-01T08:51:05;3.90;;;1.50;;
75535;SDS011;64119;52.070;20.804;2023-02-01T08:53:34;5.70;;;1.40;;
75535;SDS011;64119;52.070;20.804;2023-02-01T08:56:03;6.20;;;1.00;;
75535;SDS011;64119;52.070;20.804;2023-02-01T08:58:31;4.60;;;1.30;;
75535;SDS011;64119;52.070;20.804;2023-02-01T09:01:06;6.30;;;1.50;;
75535;SDS011;64119;52.070;20.804;2023-02-01T09:03:35;3.70;;;1.30;;
75535;SDS011;64119;52.070;20.804;2023-02-01T09:06:04;3.90;;;1.20;;
75535;SDS011;64119;52.070;20.804;2023-02-01T09:08:36;4.60;;;1.30;;
75535;SDS011;64119;52.070;20.804;2023-02-01T09:11:10;5.10;;;1.20;;
75535;SDS011;64119;52.070;20.804;2023-02-01T09:13:39;3.70;;;1.00;;
75535;SDS011;64119;52.070;20.804;2023-02-01T09:16:07;6.20;;;1.80;;
75535;SDS011;64119;52.070;20.804;2023-02-01T09:18:35;5.30;;;1.30;;
75535;SDS011;64119;52.070;20.804;2023-02-01T09:21:16;5.80;;;1.50;;
75535;SDS011;64119;52.070;20.804;2023-02-01T09:23:44;1.90;;;0.70;;
75535;SDS011;64119;52.070;20.804;2023-02-01T09:26:12;4.50;;;1.20;;
75535;SDS011;64119;52.070;20.804;2023-02-01T09:28:45;6.10;;;1.60;;
75535;SDS011;64119;52.070;20.804;2023-02-01T09:31:13;4.10;;;0.90;;
75535;SDS011;64119;52.070;20.804;2023-02-01T09:33:41;5.50;;;1.60;;
75535;SDS011;64119;52.070;20.804;2023-02-01T09:36:09;5.40;;;1.00;;
75535;SDS011;64119;52.070;20.804;2023-02-01T09:38:36;3.60;;;1.10;;
75535;SDS011;64119;52.070;20.804;2023-02-01T09:41:45;7.40;;;1.40;;
75535;SDS011;64119;52.070;20.804;2023-02-01T09:47:10;6.70;;;1.40;;
75535;SDS011;64119;52.070;20.804;2023-02-01T09:49:46;6.50;;;1.40;;
75535;SDS011;64119;52.070;20.804;2023-02-01T09:52:38;4.50;;;1.00;;
75535;SDS011;64119;52.070;20.804;2023-02-01T09:55:18;3.00;;;1.10;;
75535;SDS011;64119;52.070;20.804;2023-02-01T09:57:59;3.20;;;1.30;;
75535;SDS011;64119;52.070;20.804;2023-02-01T10:00:50;4.80;;;1.30;;
75535;SDS011;64119;52.070;20.804;2023-02-01T10:03:20;4.40;;;1.40;;
75535;SDS011;64119;52.070;20.804;2023-02-01T10:14:46;9.30;;;1.40;;
75535;SDS011;64119;52.070;20.804;2023-02-01T10:20:36;6.10;;;1.50;;
75535;SDS011;64119;52.070;20.804;2023-02-01T10:28:49;5.90;;;1.40;;
75535;SDS011;64119;52.070;20.804;2023-02-01T10:31:19;4.30;;;1.10;;
75535;SDS011;64119;52.070;20.804;2023-02-01T10:33:51;5.90;;;1.70;;
75535;SDS011;64119;52.070;20.804;2023-02-01T10:36:36;6.10;;;1.60;;
75535;SDS011;64119;52.070;20.804;2023-02-01T10:39:08;3.70;;;1.20;;
75535;SDS011;64119;52.070;20.804;2023-02-01T10:41:42;3.40;;;1.50;;
75535;SDS011;64119;52.070;20.804;2023-02-01T10:44:14;5.50;;;1.40;;
75535;SDS011;64119;52.070;20.804;2023-02-01T10:46:44;5.60;;;1.30;;
75535;SDS011;64119;52.070;20.804;2023-02-01T10:49:17;7.80;;;1.90;;
75535;SDS011;64119;52.070;20.804;2023-02-01T10:52:36;5.70;;;1.10;;
75535;SDS011;64119;52.070;20.804;2023-02-01T10:54:49;5.20;;;1.20;;
75535;SDS011;64119;52.070;20.804;2023-02-01T10:59:53;4.90;;;1.20;;
75535;SDS011;64119;52.070;20.804;2023-02-01T11:02:34;6.50;;;1.30;;
75535;SDS011;64119;52.070;20.804;2023-02-01T11:05:04;3.00;;;0.90;;
75535;SDS011;64119;52.070;20.804;2023-02-01T11:07:40;5.10;;;1.30;;
75535;SDS011;64119;52.070;20.804;2023-02-01T11:10:35;4.30;;;1.10;;
75535;SDS011;64119;52.070;20.804;2023-02-01T11:13:04;5.30;;;1.50;;
75535;SDS011;64119;52.070;20.804;2023-02-01T11:15:33;6.80;;;1.40;;
75535;SDS011;64119;52.070;20.804;2023-02-01T11:18:12;3.50;;;1.30;;
75535;SDS011;64119;52.070;20.804;2023-02-01T11:20:43;2.50;;;1.20;;
75535;SDS011;64119;52.070;20.804;2023-02-01T11:23:17;10.20;;;2.00;;
75535;SDS011;64119;52.070;20.804;2023-02-01T11:25:48;6.10;;;1.50;;
75535;SDS011;64119;52.070;20.804;2023-02-01T11:28:16;5.40;;;1.30;;
75535;SDS011;64119;52.070;20.804;2023-02-01T11:30:45;9.50;;;2.40;;
75535;SDS011;64119;52.070;20.804;2023-02-01T11:33:16;4.60;;;1.40;;
75535;SDS011;64119;52.070;20.804;2023-02-01T11:35:47;4.30;;;1.50;;
75535;SDS011;64119;52.070;20.804;2023-02-01T11:40:49;5.90;;;2.10;;
75535;SDS011;64119;52.070;20.804;2023-02-01T11:43:25;7.60;;;1.90;;
75535;SDS011;64119;52.070;20.804;2023-02-01T11:45:59;5.00;;;1.80;;
75535;SDS011;64119;52.070;20.804;2023-02-01T11:48:29;5.00;;;1.20;;
75535;SDS011;64119;52.070;20.804;2023-02-01T11:51:05;5.90;;;1.80;;
75535;SDS011;64119;52.070;20.804;2023-02-01T11:59:52;5.60;;;2.00;;
75535;SDS011;64119;52.070;20.804;2023-02-01T12:02:49;6.70;;;1.50;;
75535;SDS011;64119;52.070;20.804;2023-02-01T12:08:16;6.20;;;1.70;;
75535;SDS011;64119;52.070;20.804;2023-02-01T12:10:58;5.20;;;1.10;;
75535;SDS011;64119;52.070;20.804;2023-02-01T12:14:09;9.50;;;1.80;;
75535;SDS011;64119;52.070;20.804;2023-02-01T12:19:57;5.60;;;2.00;;
75535;SDS011;64119;52.070;20.804;2023-02-01T12:22:55;7.50;;;2.10;;
75535;SDS011;64119;52.070;20.804;2023-02-01T12:27:56;6.10;;;1.90;;
75535;SDS011;64119;52.070;20.804;2023-02-01T12:39:32;6.50;;;2.00;;
75535;SDS011;64119;52.070;20.804;2023-02-01T12:44:59;10.20;;;2.40;;
75535;SDS011;64119;52.070;20.804;2023-02-01T12:48:03;7.90;;;2.10;;
75535;SDS011;64119;52.070;20.804;2023-02-01T12:53:07;10.10;;;3.30;;
75535;SDS011;64119;52.070;20.804;2023-02-01T12:55:49;8.00;;;2.90;;
75535;SDS011;64119;52.070;20.804;2023-02-01T13:06:43;5.50;;;2.40;;
75535;SDS011;64119;52.070;20.804;2023-02-01T13:09:28;4.90;;;1.80;;
75535;SDS011;64119;52.070;20.804;2023-02-01T13:12:06;7.30;;;2.40;;
75535;SDS011;64119;52.070;20.804;2023-02-01T13:14:46;6.70;;;2.60;;
75535;SDS011;64119;52.070;20.804;2023-02-01T13:17:27;8.30;;;2.80;;
75535;SDS011;64119;52.070;20.804;2023-02-01T13:20:03;7.40;;;2.10;;
75535;SDS011;64119;52.070;20.804;2023-02-01T13:22:34;4.30;;;1.60;;
75535;SDS011;64119;52.070;20.804;2023-02-01T13:28:16;2.80;;;1.20;;
75535;SDS011;64119;52.070;20.804;2023-02-01T13:42:18;2.60;;;0.70;;
75535;SDS011;64119;52.070;20.804;2023-02-01T13:44:51;2.90;;;1.20;;
75535;SDS011;64119;52.070;20.804;2023-02-01T13:47:25;3.20;;;1.70;;
75535;SDS011;64119;52.070;20.804;2023-02-01T13:49:57;5.40;;;2.20;;
75535;SDS011;64119;52.070;20.804;2023-02-01T13:52:32;5.30;;;2.30;;
75535;SDS011;64119;52.070;20.804;2023-02-01T13:57:49;4.80;;;2.40;;
75535;SDS011;64119;52.070;20.804;2023-02-01T14:00:24;6.50;;;2.90;;
75535;SDS011;64119;52.070;20.804;2023-02-01T14:29:29;5.70;;;2.10;;
75535;SDS011;64119;52.070;20.804;2023-02-01T14:32:02;5.30;;;1.70;;
75535;SDS011;64119;52.070;20.804;2023-02-01T14:47:54;4.10;;;1.80;;
75535;SDS011;64119;52.070;20.804;2023-02-01T14:58:44;4.00;;;1.70;;
75535;SDS011;64119;52.070;20.804;2023-02-01T15:06:39;7.20;;;2.10;;
75535;SDS011;64119;52.070;20.804;2023-02-01T15:09:20;5.40;;;2.20;;
75535;SDS011;64119;52.070;20.804;2023-02-01T15:14:35;4.70;;;1.90;;
75535;SDS011;64119;52.070;20.804;2023-02-01T15:17:16;4.20;;;2.40;;
75535;SDS011;64119;52.070;20.804;2023-02-01T15:19:57;5.70;;;2.00;;
75535;SDS011;64119;52.070;20.804;2023-02-01T15:22:27;3.80;;;2.20;;
75535;SDS011;64119;52.070;20.804;2023-02-01T15:27:28;5.80;;;2.30;;
75535;SDS011;64119;52.070;20.804;2023-02-01T15:30:05;5.40;;;2.30;;
75535;SDS011;64119;52.070;20.804;2023-02-01T15:35:45;6.20;;;2.20;;
75535;SDS011;64119;52.070;20.804;2023-02-01T15:40:53;5.40;;;2.70;;
75535;SDS011;64119;52.070;20.804;2023-02-01T15:43:25;5.60;;;1.80;;
75535;SDS011;64119;52.070;20.804;2023-02-01T15:45:58;3.70;;;1.70;;
75535;SDS011;64119;52.070;20.804;2023-02-01T15:48:29;5.90;;;2.50;;
75535;SDS011;64119;52.070;20.804;2023-02-01T15:51:12;5.20;;;2.70;;
75535;SDS011;64119;52.070;20.804;2023-02-01T15:53:46;3.50;;;1.80;;
75535;SDS011;64119;52.070;20.804;2023-02-01T15:56:20;4.40;;;2.00;;
75535;SDS011;64119;52.070;20.804;2023-02-01T15:58:52;5.40;;;2.20;;
75535;SDS011;64119;52.070;20.804;2023-02-01T16:01:22;2.90;;;1.80;;
75535;SDS011;64119;52.070;20.804;2023-02-01T16:04:01;3.10;;;1.40;;
75535;SDS011;64119;52.070;20.804;2023-02-01T16:06:45;2.90;;;1.70;;
75535;SDS011;64119;52.070;20.804;2023-02-01T16:09:21;4.00;;;2.00;;
75535;SDS011;64119;52.070;20.804;2023-02-01T16:11:52;4.50;;;2.50;;
75535;SDS011;64119;52.070;20.804;2023-02-01T16:14:23;3.00;;;1.80;;
75535;SDS011;64119;52.070;20.804;2023-02-01T16:16:52;3.20;;;1.50;;
75535;SDS011;64119;52.070;20.804;2023-02-01T16:19:21;3.90;;;2.40;;
75535;SDS011;64119;52.070;20.804;2023-02-01T16:21:52;5.50;;;2.70;;
75535;SDS011;64119;52.070;20.804;2023-02-01T16:24:20;4.80;;;3.40;;
75535;SDS011;64119;52.070;20.804;2023-02-01T16:26:50;3.70;;;2.20;;
75535;SDS011;64119;52.070;20.804;2023-02-01T16:29:18;4.00;;;2.20;;
75535;SDS011;64119;52.070;20.804;2023-02-01T16:31:45;4.50;;;2.40;;
75535;SDS011;64119;52.070;20.804;2023-02-01T16:34:16;6.30;;;2.60;;
75535;SDS011;64119;52.070;20.804;2023-02-01T16:36:49;4.80;;;2.10;;
75535;SDS011;64119;52.070;20.804;2023-02-01T16:39:24;6.70;;;3.00;;
75535;SDS011;64119;52.070;20.804;2023-02-01T16:41:52;4.40;;;2.50;;
75535;SDS011;64119;52.070;20.804;2023-02-01T16:44:20;3.80;;;1.90;;
75535;SDS011;64119;52.070;20.804;2023-02-01T16:46:47;4.50;;;2.10;;
75535;SDS011;64119;52.070;20.804;2023-02-01T16:49:19;3.80;;;2.20;;
75535;SDS011;64119;52.070;20.804;2023-02-01T16:51:50;2.80;;;2.10;;
75535;SDS011;64119;52.070;20.804;2023-02-01T16:54:22;4.20;;;2.70;;
75535;SDS011;64119;52.070;20.804;2023-02-01T16:56:50;5.70;;;2.50;;
75535;SDS011;64119;52.070;20.804;2023-02-01T16:59:18;4.00;;;2.60;;
75535;SDS011;64119;52.070;20.804;2023-02-01T17:01:46;4.20;;;2.70;;
75535;SDS011;64119;52.070;20.804;2023-02-01T17:04:13;3.60;;;2.30;;
75535;SDS011;64119;52.070;20.804;2023-02-01T17:06:43;5.50;;;2.50;;
75535;SDS011;64119;52.070;20.804;2023-02-01T17:09:14;5.50;;;2.80;;
75535;SDS011;64119;52.070;20.804;2023-02-01T17:11:42;4.30;;;2.30;;
75535;SDS011;64119;52.070;20.804;2023-02-01T17:16:42;5.60;;;2.30;;
75535;SDS011;64119;52.070;20.804;2023-02-01T17:19:13;5.50;;;2.70;;
75535;SDS011;64119;52.070;20.804;2023-02-01T17:21:46;7.10;;;2.50;;
75535;SDS011;64119;52.070;20.804;2023-02-01T17:24:21;7.30;;;3.00;;
75535;SDS011;64119;52.070;20.804;2023-02-01T17:26:54;4.90;;;2.70;;
75535;SDS011;64119;52.070;20.804;2023-02-01T17:29:23;7.20;;;2.80;;
75535;SDS011;64119;52.070;20.804;2023-02-01T17:31:51;5.10;;;2.60;;
75535;SDS011;64119;52.070;20.804;2023-02-01T17:34:21;6.40;;;2.10;;
75535;SDS011;64119;52.070;20.804;2023-02-01T17:36:49;5.90;;;3.20;;
75535;SDS011;64119;52.070;20.804;2023-02-01T17:39:17;7.20;;;3.00;;
75535;SDS011;64119;52.070;20.804;2023-02-01T17:42:04;4.80;;;2.60;;
75535;SDS011;64119;52.070;20.804;2023-02-01T17:44:33;5.80;;;2.80;;
75535;SDS011;64119;52.070;20.804;2023-02-01T17:47:00;3.90;;;2.00;;
75535;SDS011;64119;52.070;20.804;2023-02-01T17:49:28;5.20;;;2.90;;
75535;SDS011;64119;52.070;20.804;2023-02-01T17:51:56;5.10;;;2.50;;
75535;SDS011;64119;52.070;20.804;2023-02-01T17:54:24;7.20;;;2.70;;
75535;SDS011;64119;52.070;20.804;2023-02-01T17:56:52;4.30;;;2.70;;
75535;SDS011;64119;52.070;20.804;2023-02-01T17:59:20;5.40;;;2.30;;
75535;SDS011;64119;52.070;20.804;2023-02-01T18:01:48;3.30;;;2.40;;
75535;SDS011;64119;52.070;20.804;2023-02-01T18:04:16;6.50;;;2.60;;
75535;SDS011;64119;52.070;20.804;2023-02-01T18:06:45;5.80;;;2.40;;
75535;SDS011;64119;52.070;20.804;2023-02-01T18:09:13;7.10;;;2.70;;
75535;SDS011;64119;52.070;20.804;2023-02-01T18:11:41;4.60;;;2.10;;
75535;SDS011;64119;52.070;20.804;2023-02-01T18:14:12;5.40;;;2.30;;
75535;SDS011;64119;52.070;20.804;2023-02-01T18:16:39;4.20;;;2.50;;
75535;SDS011;64119;52.070;20.804;2023-02-01T18:19:08;7.80;;;2.50;;
75535;SDS011;64119;52.070;20.804;2023-02-01T18:21:37;6.80;;;3.10;;
75535;SDS011;64119;52.070;20.804;2023-02-01T18:24:10;5.90;;;2.20;;
75535;SDS011;64119;52.070;20.804;2023-02-01T18:26:39;5.70;;;2.20;;
75535;SDS011;64119;52.070;20.804;2023-02-01T18:29:08;4.20;;;1.90;;
75535;SDS011;64119;52.070;20.804;2023-02-01T18:31:38;4.40;;;2.50;;
75535;SDS011;64119;52.070;20.804;2023-02-01T18:34:11;7.30;;;2.40;;
75535;SDS011;64119;52.070;20.804;2023-02-01T18:36:43;7.50;;;2.40;;